Basye, VA

09:08 PM EST 2016 abendua ren 10 an (GMT -0500)
Bryce - Lake Laura | | Change Station

Elev 1401 ft 38.80 °N, 78.79 °W | Updated 1 minute ago

Oskarbia
Oskarbia
22.1 °F
Feels Like 22 °F
N
0.0
Haizea Aldagarria Haizea from Ekialde

Gaur
High -- | Low -- °F
--% Chance of Precip.
Yesterday
High -- | Low -- °F
Precip. -- in
Presioa 30.48 in
Ikusgaitasuna 10.0 Miliak
Clouds Oskarbia
Izozki haizeak 22 °F
Ihintzaren maila 8 °F
Afoinua 55%
Rainfall 0.00 in
Snow Depth Not available.
7:23 AM 4:53 PM
Waxing Gibbous, 88% visible
METAR KLUA 110155Z AUTO 35004KT 10SM CLR M04/M08 A3048 RMK AO2
Presioa 30.48 in
Ikusgaitasuna 10.0 Miliak
Clouds Oskarbia
Izozki haizeak 22 °F
Ihintzaren maila 8 °F
Afoinua 55%
Rainfall 0.00 in
Snow Depth Not available.
7:23 AM 4:53 PM
Waxing Gibbous, 88% visible
METAR KLUA 110155Z AUTO 35004KT 10SM CLR M04/M08 A3048 RMK AO2

10-Day Weather Forecast

Almanac

Astronomy

Dec. 10, 2016 Rise Set
Actual Time
Civil Twilight
Nautical Twilight
Astronomical Twilight
Moon
Length Of Visible Light
Length of Day
Tomorrow will be .
, % of the Moon is Illuminated

Today's Extremes

State Highs State Lows

Community

WunderPhotos

Upload Photos

1,956,690 photos uploaded!

WunderBlog® & News

Nearby

Air Quality

  Air Quality AQ Index Pollutant
Not available.

Snow Depth

Station Depth Elevation

Earthquake Activity

City Distance Mag. Time & Date
Minimum magnitude displayed is 2.5.

Coastal Water Temperatures

Lekua Tenperatura

Stations

Nearby Weather Stations

Station Location Temp Izozki haizeak Ihintzaren maila Afoinua Haizea Precip. Elev Eguneratuta Type
                   

Watches & Warnings

There are currently no watches in effect.